createdAt,value
2018-06-10T00:00:04.042Z,50.13
2018-06-10T00:00:08.361Z,50.13
2018-06-10T00:00:12.467Z,50.04
2018-06-10T00:00:16.785Z,50.32
2018-06-10T00:00:20.997Z,50.23
2018-06-10T00:00:25.214Z,50.4
2018-06-10T00:00:29.536Z,49.65
2018-06-10T00:00:33.743Z,49.65
2018-06-10T00:00:38.058Z,49.53
2018-06-10T00:00:42.044Z,50.04
2018-06-10T00:00:46.359Z,49.91
2018-06-10T00:00:50.458Z,49.55
2018-06-10T00:00:54.669Z,49.46
2018-06-10T00:00:58.696Z,50.04
2018-06-10T00:01:02.917Z,49.55
2018-06-10T00:01:07.228Z,49.65
2018-06-10T00:01:11.448Z,49.55
2018-06-10T00:01:15.548Z,49.94
2018-06-10T00:01:19.754Z,50.13
2018-06-10T00:01:23.960Z,49.46
2018-06-10T00:01:27.951Z,49.55
2018-06-10T00:01:32.269Z,49.46
2018-06-10T00:01:36.364Z,49.55
2018-06-10T00:01:40.577Z,49.65
2018-06-10T00:01:44.888Z,49.27
2018-06-10T00:01:48.991Z,49.46
2018-06-10T00:01:53.202Z,49.17
2018-06-10T00:01:57.516Z,49.17
2018-06-10T00:02:01.830Z,49.27
2018-06-10T00:02:06.194Z,48.97
2018-06-10T00:02:10.511Z,48.97
2018-06-10T00:02:14.617Z,49.17
2018-06-10T00:02:18.940Z,49.17
2018-06-10T00:02:23.042Z,48.97
2018-06-10T00:02:27.253Z,48.88
2018-06-10T00:02:31.454Z,48.88
2018-06-10T00:02:35.698Z,48.79
2018-06-10T00:02:39.904Z,48.85
2018-06-10T00:02:44.013Z,49.27
2018-06-10T00:02:48.222Z,49.36
2018-06-10T00:02:52.539Z,48.79
2018-06-10T00:02:56.425Z,49.27
2018-06-10T00:03:00.632Z,49.46
2018-06-10T00:03:04.776Z,49.36
2018-06-10T00:03:08.870Z,49.46
2018-06-10T00:03:12.974Z,49.55
2018-06-10T00:03:17.195Z,49.46
2018-06-10T00:03:21.300Z,49.74
2018-06-10T00:03:25.397Z,49.82
2018-06-10T00:03:29.499Z,49.33
2018-06-10T00:03:33.701Z,49.53
2018-06-10T00:03:37.897Z,49.65
2018-06-10T00:03:41.999Z,49.74
2018-06-10T00:03:46.207Z,49.84
2018-06-10T00:03:50.305Z,49.65
2018-06-10T00:03:54.514Z,49.53
2018-06-10T00:03:58.825Z,49.65
2018-06-10T00:04:03.142Z,49.65
2018-06-10T00:04:07.141Z,49.65
2018-06-10T00:04:11.451Z,49.46
2018-06-10T00:04:15.656Z,49.94
2018-06-10T00:04:19.967Z,49.94
2018-06-10T00:04:24.062Z,50.04
2018-06-10T00:04:28.265Z,49.65
2018-06-10T00:04:32.480Z,49.65
2018-06-10T00:04:36.794Z,49.65
2018-06-10T00:04:40.785Z,49.63
2018-06-10T00:04:45.097Z,50.04
2018-06-10T00:04:49.305Z,50.23
2018-06-10T00:04:53.623Z,49.65
2018-06-10T00:04:57.837Z,50.01
2018-06-10T00:05:02.155Z,50.13
2018-06-10T00:05:06.256Z,50.42
2018-06-10T00:05:10.566Z,50.49
2018-06-10T00:05:14.874Z,50.51
2018-06-10T00:05:18.975Z,50.4
2018-06-10T00:05:23.184Z,50.2
2018-06-10T00:05:27.389Z,50.2
2018-06-10T00:05:31.599Z,50.2
2018-06-10T00:05:35.915Z,50.13
2018-06-10T00:05:40.119Z,50.13
2018-06-10T00:05:44.226Z,50.32
2018-06-10T00:05:48.437Z,50.32
2018-06-10T00:05:52.647Z,50.23
2018-06-10T00:05:56.957Z,50.23
2018-06-10T00:06:01.053Z,50.2
2018-06-10T00:06:04.935Z,50.3
2018-06-10T00:06:09.254Z,50.32
2018-06-10T00:06:13.254Z,50.49
2018-06-10T00:06:17.564Z,50.51
2018-06-10T00:06:21.869Z,50.51
2018-06-10T00:06:26.182Z,50.61
2018-06-10T00:06:30.427Z,50.61
2018-06-10T00:06:34.646Z,50.81
2018-06-10T00:06:38.954Z,51.19
2018-06-10T00:06:43.158Z,51.09
2018-06-10T00:06:47.365Z,50.78
2018-06-10T00:06:51.463Z,50.81
2018-06-10T00:06:55.815Z,51.19
2018-06-10T00:07:00.131Z,51.07
2018-06-10T00:07:04.228Z,51.17
2018-06-10T00:07:08.375Z,50.9
2018-06-10T00:07:12.590Z,50.9
2018-06-10T00:07:16.800Z,50.81
2018-06-10T00:07:21.103Z,50.71
2018-06-10T00:07:25.214Z,50.81
2018-06-10T00:07:29.520Z,50.87
2018-06-10T00:07:33.623Z,50.87
2018-06-10T00:07:37.828Z,50.87
2018-06-10T00:07:42.136Z,50.81
2018-06-10T00:07:46.336Z,50.71
2018-06-10T00:07:50.546Z,50.99
2018-06-10T00:07:54.751Z,50.81
2018-06-10T00:07:58.855Z,50.87
2018-06-10T00:08:03.056Z,50.78
2018-06-10T00:08:07.168Z,50.68
2018-06-10T00:08:11.377Z,50.81
2018-06-10T00:08:15.686Z,50.81
2018-06-10T00:08:19.892Z,50.99
2018-06-10T00:08:24.094Z,50.78
2018-06-10T00:08:28.404Z,50.81
2018-06-10T00:08:32.397Z,50.71
2018-06-10T00:08:36.601Z,50.81
2018-06-10T00:08:40.814Z,50.78
2018-06-10T00:08:45.027Z,50.78
2018-06-10T00:08:49.237Z,51.07
2018-06-10T00:08:53.552Z,51.07
2018-06-10T00:08:57.700Z,50.81
2018-06-10T00:09:01.800Z,50.99
2018-06-10T00:09:05.896Z,50.71
2018-06-10T00:09:09.902Z,51.09
2018-06-10T00:09:14.107Z,50.99
2018-06-10T00:09:18.309Z,51.17
2018-06-10T00:09:22.195Z,51.07
2018-06-10T00:09:26.294Z,50.99
2018-06-10T00:09:30.501Z,50.99
2018-06-10T00:09:34.708Z,51.07
2018-06-10T00:09:38.808Z,51.19
2018-06-10T00:09:43.116Z,50.51
2018-06-10T00:09:47.319Z,50.61
2018-06-10T00:09:51.633Z,50.71
2018-06-10T00:09:55.943Z,50.42
2018-06-10T00:10:00.156Z,50.61
2018-06-10T00:10:04.045Z,50.49
2018-06-10T00:10:08.033Z,50.51
2018-06-10T00:10:12.247Z,50.51
2018-06-10T00:10:16.631Z,50.42
2018-06-10T00:10:20.733Z,50.3
2018-06-10T00:10:25.043Z,50.2
2018-06-10T00:10:29.135Z,50.2
2018-06-10T00:10:33.458Z,50.23
2018-06-10T00:10:37.560Z,50.32
2018-06-10T00:10:41.655Z,50.3
2018-06-10T00:10:45.861Z,50.42
2018-06-10T00:10:49.964Z,50.1
2018-06-10T00:10:54.055Z,50.2
2018-06-10T00:10:58.155Z,50.42
2018-06-10T00:11:02.406Z,50.13
2018-06-10T00:11:06.616Z,50.01
2018-06-10T00:11:10.819Z,50.13
2018-06-10T00:11:15.132Z,49.84
2018-06-10T00:11:19.450Z,49.55
2018-06-10T00:11:23.759Z,49.74
2018-06-10T00:11:27.851Z,49.94
2018-06-10T00:11:32.056Z,49.55
2018-06-10T00:11:36.265Z,49.72
2018-06-10T00:11:40.584Z,49.84
2018-06-10T00:11:44.897Z,49.55
2018-06-10T00:11:49.099Z,49.65
2018-06-10T00:11:53.407Z,49.94
2018-06-10T00:11:57.611Z,49.33
2018-06-10T00:12:01.815Z,49.36
2018-06-10T00:12:05.877Z,49.53
2018-06-10T00:12:10.076Z,49.46
2018-06-10T00:12:14.287Z,49.46
2018-06-10T00:12:18.601Z,49.24
2018-06-10T00:12:22.697Z,49.15
2018-06-10T00:12:26.894Z,48.97
2018-06-10T00:12:31.100Z,49.07
2018-06-10T00:12:35.311Z,49.27
2018-06-10T00:12:39.529Z,49.15
2018-06-10T00:12:43.841Z,48.76
2018-06-10T00:12:47.838Z,48.85
2018-06-10T00:12:52.146Z,49.07
2018-06-10T00:12:56.347Z,48.95
2018-06-10T00:13:00.555Z,49.05
2018-06-10T00:13:04.764Z,49.07
2018-06-10T00:13:08.867Z,48.95
2018-06-10T00:13:13.180Z,48.79
2018-06-10T00:13:17.498Z,49.05
2018-06-10T00:13:21.811Z,48.88
2018-06-10T00:13:26.046Z,48.76
2018-06-10T00:13:30.251Z,48.88
2018-06-10T00:13:34.449Z,48.88
2018-06-10T00:13:38.652Z,48.79
2018-06-10T00:13:42.957Z,48.88
2018-06-10T00:13:46.944Z,48.97
2018-06-10T00:13:51.146Z,48.88
2018-06-10T00:13:55.460Z,48.97
2018-06-10T00:13:59.662Z,49.05
2018-06-10T00:14:03.869Z,48.95
2018-06-10T00:14:08.197Z,49.07
2018-06-10T00:14:12.408Z,48.97
2018-06-10T00:14:16.524Z,48.88
2018-06-10T00:14:20.731Z,48.85
2018-06-10T00:14:24.934Z,48.85
2018-06-10T00:14:29.253Z,48.95
2018-06-10T00:14:33.460Z,48.79
2018-06-10T00:14:37.766Z,48.76
2018-06-10T00:14:41.763Z,48.95
2018-06-10T00:14:46.083Z,48.97
2018-06-10T00:14:50.178Z,48.95
2018-06-10T00:14:54.486Z,48.95
2018-06-10T00:14:58.693Z,48.95
2018-06-10T00:15:02.967Z,48.85
2018-06-10T00:15:07.069Z,48.95
2018-06-10T00:15:11.384Z,49.33
2018-06-10T00:15:15.479Z,49.15
2018-06-10T00:15:19.781Z,49.15
2018-06-10T00:15:24.086Z,49.27
2018-06-10T00:15:28.289Z,49.24
2018-06-10T00:15:32.498Z,49.36
2018-06-10T00:15:36.596Z,48.85
2018-06-10T00:15:40.812Z,48.95
2018-06-10T00:15:45.017Z,49.07
2018-06-10T00:15:49.326Z,49.07
2018-06-10T00:15:53.529Z,49.36
2018-06-10T00:15:57.738Z,48.88
2018-06-10T00:16:01.942Z,48.88
2018-06-10T00:16:06.132Z,49.05
2018-06-10T00:16:10.340Z,49.07
2018-06-10T00:16:14.327Z,48.76
2018-06-10T00:16:18.428Z,48.95
2018-06-10T00:16:22.738Z,48.76
2018-06-10T00:16:27.069Z,48.79
2018-06-10T00:16:31.275Z,49.05
2018-06-10T00:16:35.381Z,49.05
2018-06-10T00:16:39.590Z,48.85
2018-06-10T00:16:43.692Z,48.97
2018-06-10T00:16:47.794Z,49.15
2018-06-10T00:16:52.106Z,49.33
2018-06-10T00:16:56.418Z,49.33
2018-06-10T00:17:00.626Z,49.24
2018-06-10T00:17:04.726Z,49.36
2018-06-10T00:17:08.819Z,49.33
2018-06-10T00:17:13.022Z,49.27
2018-06-10T00:17:17.225Z,49.15
2018-06-10T00:17:21.530Z,49.24
2018-06-10T00:17:25.734Z,49.46
2018-06-10T00:17:29.842Z,49.53
2018-06-10T00:17:34.046Z,49.46
2018-06-10T00:17:38.367Z,49.15
2018-06-10T00:17:42.677Z,49.15
2018-06-10T00:17:46.889Z,49.33
2018-06-10T00:17:51.199Z,49.17
2018-06-10T00:17:55.306Z,49.24
2018-06-10T00:17:59.509Z,49.24
2018-06-10T00:18:03.716Z,49.15
2018-06-10T00:18:07.924Z,49.27
2018-06-10T00:18:12.127Z,48.97
2018-06-10T00:18:16.331Z,49.07
2018-06-10T00:18:20.645Z,48.88
2018-06-10T00:18:24.845Z,48.88
2018-06-10T00:18:29.050Z,49.05
2018-06-10T00:18:32.937Z,49.05
2018-06-10T00:18:37.137Z,48.95
2018-06-10T00:18:41.343Z,48.85
2018-06-10T00:18:45.547Z,48.95
2018-06-10T00:18:49.756Z,48.85
2018-06-10T00:18:53.963Z,48.95
2018-06-10T00:18:58.169Z,48.76
2018-06-10T00:19:02.381Z,49.07
2018-06-10T00:19:06.485Z,48.95
2018-06-10T00:19:10.692Z,48.76
2018-06-10T00:19:14.997Z,49.05
2018-06-10T00:19:19.202Z,49.24
2018-06-10T00:19:23.194Z,49.33
2018-06-10T00:19:27.392Z,49.05
2018-06-10T00:19:31.594Z,49.24
2018-06-10T00:19:35.796Z,48.95
2018-06-10T00:19:40.007Z,48.97
2018-06-10T00:19:44.216Z,48.95
2018-06-10T00:19:48.562Z,48.95
2018-06-10T00:19:52.772Z,48.85
2018-06-10T00:19:56.970Z,48.76
2018-06-10T00:20:01.071Z,48.59
2018-06-10T00:20:05.387Z,48.57
2018-06-10T00:20:09.697Z,48.57
2018-06-10T00:20:13.944Z,48.59
2018-06-10T00:20:18.269Z,48.47
2018-06-10T00:20:22.472Z,48.21
2018-06-10T00:20:26.567Z,48.38
2018-06-10T00:20:30.556Z,48.57
2018-06-10T00:20:34.871Z,48.57
2018-06-10T00:20:38.964Z,48.18
2018-06-10T00:20:43.215Z,48.28
2018-06-10T00:20:47.416Z,48.4
2018-06-10T00:20:51.735Z,48.08
2018-06-10T00:20:56.052Z,47.99
2018-06-10T00:21:00.366Z,48.21
2018-06-10T00:21:04.367Z,47.8
2018-06-10T00:21:08.736Z,48.02
2018-06-10T00:21:13.054Z,47.82
2018-06-10T00:21:17.358Z,47.82
2018-06-10T00:21:21.569Z,47.61
2018-06-10T00:21:25.770Z,47.15
2018-06-10T00:21:29.765Z,46.84
2018-06-10T00:21:33.970Z,46.95
2018-06-10T00:21:38.176Z,46.74
2018-06-10T00:21:42.174Z,46.86
2018-06-10T00:21:46.376Z,47.05
2018-06-10T00:21:50.691Z,47.15
2018-06-10T00:21:54.792Z,46.86
2018-06-10T00:21:59.103Z,46.95
2018-06-10T00:22:03.103Z,47.05
2018-06-10T00:22:07.205Z,46.86
2018-06-10T00:22:11.523Z,46.28
2018-06-10T00:22:15.728Z,46.38
2018-06-10T00:22:19.935Z,46.28
2018-06-10T00:22:24.030Z,46.28
2018-06-10T00:22:28.123Z,46.19
2018-06-10T00:22:32.327Z,46.26
2018-06-10T00:22:36.315Z,45.99
2018-06-10T00:22:40.412Z,46.09
2018-06-10T00:22:44.522Z,45.8
2018-06-10T00:22:48.839Z,45.9
2018-06-10T00:22:53.144Z,45.97
2018-06-10T00:22:57.452Z,45.49
2018-06-10T00:23:01.773Z,45.03
2018-06-10T00:23:05.864Z,45.13
2018-06-10T00:23:10.235Z,45.13
2018-06-10T00:23:14.334Z,44.84
2018-06-10T00:23:18.543Z,44.93
2018-06-10T00:23:22.746Z,44.74
2018-06-10T00:23:26.947Z,45.01
2018-06-10T00:23:31.154Z,44.74
2018-06-10T00:23:35.373Z,45.03
2018-06-10T00:23:39.478Z,45.03
2018-06-10T00:23:43.793Z,45.22
2018-06-10T00:23:47.890Z,44.82
2018-06-10T00:23:52.150Z,44.93
2018-06-10T00:23:56.354Z,44.93
2018-06-10T00:24:00.562Z,45.03
2018-06-10T00:24:04.655Z,44.74
2018-06-10T00:24:08.854Z,44.53
2018-06-10T00:24:13.166Z,44.35
2018-06-10T00:24:17.497Z,44.07
2018-06-10T00:24:21.858Z,44.07
2018-06-10T00:24:25.959Z,44.34
2018-06-10T00:24:30.167Z,44.07
2018-06-10T00:24:34.262Z,44.14
2018-06-10T00:24:38.460Z,43.76
2018-06-10T00:24:42.658Z,43.59
2018-06-10T00:24:46.650Z,43.59
2018-06-10T00:24:50.851Z,43.49
2018-06-10T00:24:55.059Z,43.49
2018-06-10T00:24:59.263Z,43.59
2018-06-10T00:25:03.355Z,43.28
2018-06-10T00:25:07.671Z,43.66
2018-06-10T00:25:11.986Z,43.57
2018-06-10T00:25:16.301Z,43.28
2018-06-10T00:25:20.499Z,43.08
2018-06-10T00:25:24.712Z,43.18
2018-06-10T00:25:29.033Z,43.49
2018-06-10T00:25:33.356Z,43.68
2018-06-10T00:25:37.670Z,43.59
2018-06-10T00:25:41.763Z,43.2
2018-06-10T00:25:45.970Z,43.18
2018-06-10T00:25:50.062Z,43.18
2018-06-10T00:25:54.370Z,42.82
2018-06-10T00:25:58.583Z,43.01
2018-06-10T00:26:02.795Z,42.72
2018-06-10T00:26:07.005Z,42.91
2018-06-10T00:26:11.102Z,42.91
2018-06-10T00:26:15.200Z,42.89
2018-06-10T00:26:19.398Z,43.2
2018-06-10T00:26:23.601Z,42.91
2018-06-10T00:26:27.811Z,42.82
2018-06-10T00:26:32.015Z,42.6
2018-06-10T00:26:36.214Z,42.53
2018-06-10T00:26:40.526Z,42.24
2018-06-10T00:26:44.732Z,42.14
2018-06-10T00:26:48.838Z,42.22
2018-06-10T00:26:53.050Z,42.24
2018-06-10T00:26:57.368Z,42.32
2018-06-10T00:27:01.361Z,42.33
2018-06-10T00:27:05.349Z,42.24
2018-06-10T00:27:09.556Z,42.5
2018-06-10T00:27:13.767Z,42.63
2018-06-10T00:27:18.074Z,42.72
2018-06-10T00:27:22.170Z,42.7
2018-06-10T00:27:26.374Z,42.7
2018-06-10T00:27:30.576Z,42.63
2018-06-10T00:27:34.671Z,42.7
2018-06-10T00:27:38.773Z,42.6
2018-06-10T00:27:42.975Z,42.41
2018-06-10T00:27:47.180Z,42.5
2018-06-10T00:27:51.392Z,42.32
2018-06-10T00:27:55.596Z,42.82
2018-06-10T00:27:59.921Z,42.43
2018-06-10T00:28:04.187Z,42.6
2018-06-10T00:28:08.176Z,42.43
2018-06-10T00:28:12.401Z,42.41
2018-06-10T00:28:16.726Z,42.41
2018-06-10T00:28:20.926Z,42.5
2018-06-10T00:28:25.238Z,42.7
2018-06-10T00:28:29.337Z,42.5
2018-06-10T00:28:33.647Z,42.22
2018-06-10T00:28:37.744Z,42.32
2018-06-10T00:28:41.954Z,42.24
2018-06-10T00:28:46.264Z,42.43
2018-06-10T00:28:50.473Z,42.41
2018-06-10T00:28:54.566Z,42.22
2018-06-10T00:28:58.909Z,42.32
2018-06-10T00:29:02.901Z,42.22
2018-06-10T00:29:07.004Z,42.22
2018-06-10T00:29:11.128Z,42.03
2018-06-10T00:29:15.447Z,41.83
2018-06-10T00:29:19.765Z,41.83
2018-06-10T00:29:24.082Z,42.41
2018-06-10T00:29:28.286Z,42.32
2018-06-10T00:29:32.390Z,42.24
2018-06-10T00:29:36.598Z,41.38
2018-06-10T00:29:40.696Z,41.47
2018-06-10T00:29:44.902Z,41.47
2018-06-10T00:29:48.996Z,41.35
2018-06-10T00:29:53.221Z,41.45
2018-06-10T00:29:57.320Z,41.16
2018-06-10T00:30:01.631Z,40.89
2018-06-10T00:30:05.846Z,40.97
2018-06-10T00:30:10.049Z,40.97
2018-06-10T00:30:14.263Z,40.97
2018-06-10T00:30:18.363Z,40.88
2018-06-10T00:30:22.573Z,40.7
2018-06-10T00:30:26.794Z,40.89
2018-06-10T00:30:31.133Z,40.97
2018-06-10T00:30:35.014Z,40.78
2018-06-10T00:30:39.363Z,40.97
2018-06-10T00:30:43.570Z,41.16
2018-06-10T00:30:47.665Z,41.06
2018-06-10T00:30:51.874Z,41.16
2018-06-10T00:30:56.086Z,41.06
2018-06-10T00:31:00.411Z,41.16
2018-06-10T00:31:04.407Z,41.06
2018-06-10T00:31:08.511Z,41.16
2018-06-10T00:31:12.607Z,41.18
2018-06-10T00:31:16.821Z,40.49
2018-06-10T00:31:21.184Z,40.97
2018-06-10T00:31:25.397Z,41.16
2018-06-10T00:31:29.605Z,41.16
2018-06-10T00:31:33.719Z,41.06
2018-06-10T00:31:37.923Z,40.88
2018-06-10T00:31:42.130Z,41.16
2018-06-10T00:31:46.343Z,41.16
2018-06-10T00:31:50.555Z,40.97
2018-06-10T00:31:54.751Z,41.06
2018-06-10T00:31:58.955Z,40.88
2018-06-10T00:32:02.955Z,41.26
2018-06-10T00:32:06.947Z,41.06
2018-06-10T00:32:11.269Z,41.06
2018-06-10T00:32:15.480Z,41.06
2018-06-10T00:32:19.680Z,40.78
2018-06-10T00:32:23.999Z,40.78
2018-06-10T00:32:27.985Z,40.88
2018-06-10T00:32:32.294Z,40.78
2018-06-10T00:32:36.498Z,40.78
2018-06-10T00:32:40.816Z,41.16
2018-06-10T00:32:45.024Z,41.16
2018-06-10T00:32:49.229Z,41.16
2018-06-10T00:32:53.335Z,41.16
2018-06-10T00:32:57.539Z,41.16
2018-06-10T00:33:01.748Z,41.06
2018-06-10T00:33:06.170Z,40.49
2018-06-10T00:33:10.379Z,40.49
2018-06-10T00:33:14.585Z,40.78
2018-06-10T00:33:18.692Z,40.78
2018-06-10T00:33:22.895Z,40.49
2018-06-10T00:33:27.097Z,40.39
2018-06-10T00:33:31.408Z,40.78
2018-06-10T00:33:35.610Z,40.97
2018-06-10T00:33:39.921Z,40.88
2018-06-10T00:33:43.908Z,40.78
2018-06-10T00:33:48.113Z,40.78
2018-06-10T00:33:52.315Z,40.68
2018-06-10T00:33:56.626Z,40.58
2018-06-10T00:34:00.877Z,40.68
2018-06-10T00:34:05.085Z,41.26
2018-06-10T00:34:09.290Z,41.26
2018-06-10T00:34:13.489Z,41.16
2018-06-10T00:34:17.691Z,41.16
2018-06-10T00:34:21.897Z,41.16
2018-06-10T00:34:26.010Z,41.16
2018-06-10T00:34:30.215Z,41.06
2018-06-10T00:34:34.417Z,41.16
2018-06-10T00:34:38.624Z,41.16
2018-06-10T00:34:42.934Z,40.88
2018-06-10T00:34:47.036Z,40.97
2018-06-10T00:34:51.239Z,40.97
2018-06-10T00:34:55.446Z,40.97
2018-06-10T00:34:59.553Z,41.06
2018-06-10T00:35:03.862Z,41.16
2018-06-10T00:35:08.063Z,41.26
2018-06-10T00:35:12.265Z,41.26
2018-06-10T00:35:16.470Z,41.16
2018-06-10T00:35:20.688Z,41.16
2018-06-10T00:35:25.010Z,41.06
2018-06-10T00:35:29.330Z,41.06
2018-06-10T00:35:33.695Z,41.06
2018-06-10T00:35:37.903Z,41.06
2018-06-10T00:35:42.112Z,40.88
2018-06-10T00:35:46.368Z,40.97
2018-06-10T00:35:50.477Z,41.06
2018-06-10T00:35:54.801Z,40.97
2018-06-10T00:35:59.008Z,41.06
2018-06-10T00:36:03.312Z,40.97
2018-06-10T00:36:07.515Z,40.97
2018-06-10T00:36:11.882Z,41.16
2018-06-10T00:36:16.100Z,41.16
2018-06-10T00:36:20.304Z,41.16
2018-06-10T00:36:24.401Z,40.97
2018-06-10T00:36:28.719Z,41.06
2018-06-10T00:36:32.708Z,40.97
2018-06-10T00:36:36.812Z,41.06
2018-06-10T00:36:41.054Z,40.97
2018-06-10T00:36:45.381Z,41.06
2018-06-10T00:36:49.697Z,41.26
2018-06-10T00:36:53.798Z,41.26
2018-06-10T00:36:58.006Z,41.45
2018-06-10T00:37:02.224Z,41.45
2018-06-10T00:37:06.423Z,41.45
2018-06-10T00:37:10.737Z,41.06
2018-06-10T00:37:14.938Z,41.16
2018-06-10T00:37:19.260Z,41.45
2018-06-10T00:37:23.251Z,41.35
2018-06-10T00:37:27.562Z,41.35
2018-06-10T00:37:31.778Z,41.35
2018-06-10T00:37:35.873Z,41.55
2018-06-10T00:37:40.078Z,41.35
2018-06-10T00:37:44.169Z,41.45
2018-06-10T00:37:48.385Z,41.45
2018-06-10T00:37:52.483Z,41.45
2018-06-10T00:37:56.687Z,41.45
2018-06-10T00:38:00.889Z,41.55
2018-06-10T00:38:04.947Z,41.55
2018-06-10T00:38:09.155Z,41.45
2018-06-10T00:38:13.256Z,41.45
2018-06-10T00:38:17.455Z,41.06
2018-06-10T00:38:21.657Z,40.97
2018-06-10T00:38:25.770Z,41.06
2018-06-10T00:38:30.075Z,40.97
2018-06-10T00:38:34.282Z,40.97
2018-06-10T00:38:38.598Z,40.97
2018-06-10T00:38:42.588Z,40.97
2018-06-10T00:38:46.891Z,41.06
2018-06-10T00:38:51.100Z,41.06
2018-06-10T00:38:55.309Z,41.35
2018-06-10T00:38:59.618Z,41.16
2018-06-10T00:39:03.720Z,41.26
2018-06-10T00:39:07.817Z,41.26
2018-06-10T00:39:12.026Z,41.26
2018-06-10T00:39:16.337Z,41.06
2018-06-10T00:39:20.541Z,41.26
2018-06-10T00:39:24.530Z,40.97
2018-06-10T00:39:28.628Z,41.26
2018-06-10T00:39:32.617Z,41.06
2018-06-10T00:39:36.713Z,41.16
2018-06-10T00:39:40.597Z,41.06
2018-06-10T00:39:44.914Z,41.26
2018-06-10T00:39:49.015Z,41.26
2018-06-10T00:39:53.319Z,41.35
2018-06-10T00:39:57.524Z,41.26
2018-06-10T00:40:01.883Z,41.16
2018-06-10T00:40:05.883Z,41.55
2018-06-10T00:40:10.088Z,41.06
2018-06-10T00:40:14.402Z,41.45
2018-06-10T00:40:18.613Z,41.45
2018-06-10T00:40:22.703Z,41.16
2018-06-10T00:40:26.805Z,41.45
2018-06-10T00:40:30.912Z,41.45
2018-06-10T00:40:35.220Z,41.35
2018-06-10T00:40:39.215Z,41.45
2018-06-10T00:40:43.417Z,41.45
2018-06-10T00:40:47.749Z,41.26
2018-06-10T00:40:51.957Z,41.45
2018-06-10T00:40:56.166Z,41.45
2018-06-10T00:41:00.370Z,41.55
2018-06-10T00:41:04.686Z,41.45
2018-06-10T00:41:08.888Z,41.55
2018-06-10T00:41:13.204Z,41.55
2018-06-10T00:41:17.409Z,41.64
2018-06-10T00:41:21.720Z,41.55
2018-06-10T00:41:26.032Z,41.45
2018-06-10T00:41:30.234Z,41.55
2018-06-10T00:41:34.328Z,41.45
2018-06-10T00:41:38.639Z,41.55
2018-06-10T00:41:42.753Z,41.45
2018-06-10T00:41:46.953Z,41.26
2018-06-10T00:41:51.272Z,41.16
2018-06-10T00:41:55.473Z,41.26
2018-06-10T00:41:59.678Z,41.16
2018-06-10T00:42:03.783Z,41.35
2018-06-10T00:42:07.889Z,41.45
2018-06-10T00:42:12.208Z,41.55
2018-06-10T00:42:16.421Z,41.55
2018-06-10T00:42:20.636Z,41.45
2018-06-10T00:42:24.949Z,41.55
2018-06-10T00:42:29.158Z,41.74
2018-06-10T00:42:33.467Z,41.74
2018-06-10T00:42:37.675Z,41.74
2018-06-10T00:42:41.986Z,41.83
2018-06-10T00:42:46.295Z,41.93
2018-06-10T00:42:50.502Z,41.93
2018-06-10T00:42:54.815Z,41.93
2018-06-10T00:42:59.135Z,42.5
2018-06-10T00:43:03.351Z,42.41
2018-06-10T00:43:07.568Z,42.32
2018-06-10T00:43:11.883Z,42.32
2018-06-10T00:43:15.987Z,42.22
2018-06-10T00:43:20.304Z,42.32
2018-06-10T00:43:24.506Z,42.41
2018-06-10T00:43:28.717Z,42.32
2018-06-10T00:43:32.919Z,42.41
2018-06-10T00:43:37.134Z,42.32
2018-06-10T00:43:41.236Z,42.22
2018-06-10T00:43:45.541Z,42.41
2018-06-10T00:43:49.644Z,42.41
2018-06-10T00:43:53.953Z,42.22
2018-06-10T00:43:58.167Z,42.41
2018-06-10T00:44:02.483Z,42.32
2018-06-10T00:44:06.703Z,42.41
2018-06-10T00:44:11.063Z,42.41
2018-06-10T00:44:15.274Z,42.32
2018-06-10T00:44:19.534Z,42.32
2018-06-10T00:44:23.740Z,42.32
2018-06-10T00:44:28.048Z,42.5
2018-06-10T00:45:04.359Z,42.12
2018-06-10T00:45:08.463Z,42.32
2018-06-10T00:45:12.781Z,42.41
2018-06-10T00:45:17.106Z,42.41
2018-06-10T00:45:21.311Z,42.5
2018-06-10T00:45:25.622Z,42.41
2018-06-10T00:45:29.722Z,42.5
2018-06-10T00:45:33.818Z,42.5
2018-06-10T00:45:38.018Z,42.41
2018-06-10T00:45:42.330Z,42.41
2018-06-10T00:45:46.534Z,42.5
2018-06-10T00:45:50.741Z,42.41
2018-06-10T00:45:55.053Z,42.5
2018-06-10T00:45:59.265Z,42.41
2018-06-10T00:46:03.259Z,42.32
2018-06-10T00:46:07.463Z,42.41
2018-06-10T00:46:11.781Z,42.5
2018-06-10T00:46:15.990Z,42.41
2018-06-10T00:46:20.199Z,41.83
2018-06-10T00:46:24.514Z,42.12
2018-06-10T00:46:28.611Z,42.32
2018-06-10T00:46:32.712Z,42.41
2018-06-10T00:46:36.916Z,41.83
2018-06-10T00:46:40.905Z,41.83
2018-06-10T00:46:45.116Z,41.64
2018-06-10T00:46:49.214Z,41.55
2018-06-10T00:46:53.424Z,41.45
2018-06-10T00:46:57.636Z,41.45
2018-06-10T00:47:01.952Z,41.35
2018-06-10T00:47:05.970Z,41.16
2018-06-10T00:47:10.083Z,40.97
2018-06-10T00:47:14.183Z,40.88
2018-06-10T00:47:18.387Z,40.49
2018-06-10T00:47:22.589Z,40.88
2018-06-10T00:47:26.901Z,40.78
2018-06-10T00:47:31.107Z,40.78
2018-06-10T00:47:35.204Z,40.2
2018-06-10T00:47:39.414Z,39.81
2018-06-10T00:47:43.622Z,39.53
2018-06-10T00:47:47.936Z,39.24
2018-06-10T00:47:52.033Z,38.66
2018-06-10T00:47:56.344Z,38.56
2018-06-10T00:48:00.699Z,38.76
2018-06-10T00:48:04.801Z,37.6
2018-06-10T00:48:09.117Z,36.83
2018-06-10T00:48:13.327Z,36.93
2018-06-10T00:48:17.634Z,36.45
2018-06-10T00:48:21.847Z,36.54
2018-06-10T00:48:26.158Z,36.45
2018-06-10T00:48:30.470Z,36.07
2018-06-10T00:48:34.786Z,35.58
2018-06-10T00:48:38.987Z,35
2018-06-10T00:48:43.193Z,34.43
2018-06-10T00:48:47.287Z,34.23
2018-06-10T00:48:51.602Z,33.85
2018-06-10T00:48:55.735Z,34.05
2018-06-10T00:49:00.039Z,33.75
2018-06-10T00:49:03.829Z,33.75
2018-06-10T00:49:08.143Z,33.95
2018-06-10T00:49:12.464Z,34.14
2018-06-10T00:49:16.715Z,34.23
2018-06-10T00:49:21.098Z,34.43
2018-06-10T00:49:24.986Z,34.53
2018-06-10T00:49:29.298Z,34.23
2018-06-10T00:49:33.625Z,34.43
2018-06-10T00:49:37.935Z,34.14
2018-06-10T00:49:42.031Z,33.85
2018-06-10T00:49:46.290Z,33.66
2018-06-10T00:49:50.387Z,33.37
2018-06-10T00:49:54.694Z,33.08
2018-06-10T00:49:58.806Z,33.08
2018-06-10T00:50:03.014Z,33.56
2018-06-10T00:50:07.125Z,33.18
2018-06-10T00:50:11.235Z,32.98
2018-06-10T00:50:15.542Z,33.08
2018-06-10T00:50:19.854Z,33.18
2018-06-10T00:50:23.841Z,33.56
2018-06-10T00:50:27.836Z,33.37
2018-06-10T00:50:32.147Z,33.18
2018-06-10T00:50:36.465Z,33.18
2018-06-10T00:50:40.576Z,33.18
2018-06-10T00:50:44.680Z,33.18
2018-06-10T00:50:48.895Z,33.56
2018-06-10T00:50:53.099Z,33.56
2018-06-10T00:50:57.199Z,33.56
2018-06-10T00:51:01.512Z,33.47
2018-06-10T00:51:05.729Z,33.28
2018-06-10T00:51:09.719Z,33.37
2018-06-10T00:51:13.927Z,33.56
2018-06-10T00:51:18.169Z,33.08
2018-06-10T00:51:22.470Z,33.18
2018-06-10T00:51:26.776Z,33.28
2018-06-10T00:51:30.881Z,33.47
2018-06-10T00:51:35.191Z,33.28
2018-06-10T00:51:39.294Z,33.28
2018-06-10T00:51:43.496Z,33.18
2018-06-10T00:51:47.804Z,33.56
2018-06-10T00:51:52.012Z,33.18
2018-06-10T00:51:56.212Z,33.47
2018-06-10T00:52:00.317Z,33.18
2018-06-10T00:52:04.645Z,33.28
2018-06-10T00:52:08.859Z,33.08
2018-06-10T00:52:13.079Z,32.89
2018-06-10T00:52:17.281Z,32.89
2018-06-10T00:52:21.485Z,33.18
2018-06-10T00:52:25.793Z,32.89
2018-06-10T00:52:29.995Z,33.18
2018-06-10T00:52:34.201Z,32.98
2018-06-10T00:52:38.510Z,32.89
2018-06-10T00:52:42.716Z,32.98
2018-06-10T00:52:47.034Z,33.18
2018-06-10T00:52:51.348Z,33.18
2018-06-10T00:52:55.661Z,33.18
2018-06-10T00:52:59.864Z,33.18
2018-06-10T00:53:04.165Z,33.37
2018-06-10T00:53:08.367Z,33.28
2018-06-10T00:53:12.578Z,33.26
2018-06-10T00:53:16.781Z,32.98
2018-06-10T00:53:21.097Z,32.87
2018-06-10T00:53:25.415Z,32.98
2018-06-10T00:53:29.625Z,32.89
2018-06-10T00:53:33.724Z,33.07
2018-06-10T00:53:37.824Z,33.18
2018-06-10T00:53:42.029Z,33.18
2018-06-10T00:53:46.120Z,33.18
2018-06-10T00:53:50.428Z,33.28
2018-06-10T00:53:54.736Z,33.56
2018-06-10T00:53:59.046Z,33.28
2018-06-10T00:54:03.143Z,33.36
2018-06-10T00:54:07.344Z,33.28
2018-06-10T00:54:11.444Z,33.26
2018-06-10T00:54:15.770Z,33.37
2018-06-10T00:54:19.876Z,33.08
2018-06-10T00:54:24.072Z,33.56
2018-06-10T00:54:28.330Z,33.26
2018-06-10T00:54:32.447Z,32.98
2018-06-10T00:54:36.652Z,32.98
2018-06-10T00:54:40.967Z,32.87
2018-06-10T00:54:45.176Z,33.18
2018-06-10T00:54:49.382Z,33.08